createdAt,value
2023-02-05T00:02:25.116Z,5.35
2023-02-05T00:04:53.446Z,5.37
2023-02-05T00:07:23.873Z,5.36
2023-02-05T00:09:51.774Z,5.34
2023-02-05T00:12:19.785Z,5.31
2023-02-05T00:14:47.885Z,5.32
2023-02-05T00:17:16.066Z,5.35
2023-02-05T00:19:44.254Z,5.37
2023-02-05T00:22:12.208Z,5.36
2023-02-05T00:24:41.731Z,5.32
2023-02-05T00:27:10.219Z,5.20
2023-02-05T00:29:38.241Z,5.20
2023-02-05T00:32:07.154Z,5.19
2023-02-05T00:34:37.198Z,5.21
2023-02-05T00:37:05.362Z,5.23
2023-02-05T00:39:34.028Z,5.24
2023-02-05T00:42:04.080Z,5.27
2023-02-05T00:44:32.289Z,5.28
2023-02-05T00:47:01.096Z,5.33
2023-02-05T00:49:29.152Z,5.38
2023-02-05T00:51:57.072Z,5.37
2023-02-05T00:54:26.352Z,5.40
2023-02-05T00:56:54.527Z,5.40
2023-02-05T00:59:24.225Z,5.43
2023-02-05T01:01:54.575Z,5.45
2023-02-05T01:04:22.733Z,5.44
2023-02-05T01:06:53.335Z,5.48
2023-02-05T01:09:22.974Z,5.47
2023-02-05T01:11:51.278Z,5.41
2023-02-05T01:14:19.562Z,5.41
2023-02-05T01:16:49.567Z,5.42
2023-02-05T01:19:17.720Z,5.37
2023-02-05T01:21:45.981Z,5.36
2023-02-05T01:24:13.856Z,5.33
2023-02-05T01:26:42.075Z,5.24
2023-02-05T01:29:09.818Z,5.16
2023-02-05T01:31:38.046Z,5.09
2023-02-05T01:34:08.660Z,5.00
2023-02-05T01:36:36.702Z,4.92
2023-02-05T01:39:04.776Z,4.82
2023-02-05T01:41:33.118Z,4.73
2023-02-05T01:44:09.480Z,4.70
2023-02-05T01:46:38.775Z,4.68
2023-02-05T01:49:15.569Z,4.64
2023-02-05T01:51:46.464Z,4.62
2023-02-05T01:54:16.413Z,4.63
2023-02-05T01:56:48.175Z,4.62
2023-02-05T01:59:20.285Z,4.63
2023-02-05T02:01:49.039Z,4.65
2023-02-05T02:04:24.605Z,4.63
2023-02-05T02:06:52.566Z,4.62
2023-02-05T02:09:21.736Z,4.67
2023-02-05T02:11:53.346Z,4.71
2023-02-05T02:14:25.914Z,4.78
2023-02-05T02:16:54.886Z,4.75
2023-02-05T02:19:31.693Z,4.75
2023-02-05T02:22:35.967Z,4.79
2023-02-05T02:25:33.265Z,4.83
2023-02-05T02:28:07.679Z,4.84
2023-02-05T02:30:42.134Z,4.83
2023-02-05T02:33:16.396Z,4.84
2023-02-05T02:35:53.582Z,4.83
2023-02-05T02:38:29.236Z,4.80
2023-02-05T02:41:06.767Z,4.79
2023-02-05T02:43:43.129Z,4.80
2023-02-05T02:46:19.091Z,4.73
2023-02-05T02:48:51.542Z,4.71
2023-02-05T02:51:21.834Z,4.71
2023-02-05T02:53:56.944Z,4.66
2023-02-05T02:56:27.217Z,4.63
2023-02-05T02:59:02.451Z,4.67
2023-02-05T03:01:34.717Z,4.58
2023-02-05T03:04:08.459Z,4.61
2023-02-05T03:06:39.716Z,4.64
2023-02-05T03:09:14.403Z,4.61
2023-02-05T03:11:43.024Z,4.60
2023-02-05T03:14:12.779Z,4.62
2023-02-05T03:16:43.366Z,4.62
2023-02-05T03:19:11.772Z,4.59
2023-02-05T03:21:43.988Z,4.60
2023-02-05T03:24:12.529Z,4.59
2023-02-05T03:26:42.164Z,4.62
2023-02-05T03:29:22.489Z,4.61
2023-02-05T03:32:03.106Z,4.67
2023-02-05T03:34:46.835Z,4.71
2023-02-05T03:37:23.395Z,4.68
2023-02-05T03:40:05.227Z,4.70
2023-02-05T03:42:46.218Z,4.72
2023-02-05T03:45:32.898Z,4.67
2023-02-05T03:48:17.291Z,4.67
2023-02-05T03:50:53.454Z,4.73
2023-02-05T03:53:29.157Z,4.76
2023-02-05T03:56:10.863Z,4.84
2023-02-05T03:58:43.245Z,4.82
2023-02-05T04:01:26.490Z,4.86
2023-02-05T04:03:54.918Z,4.89
2023-02-05T04:06:23.193Z,4.90
2023-02-05T04:08:54.243Z,4.92
2023-02-05T04:11:24.632Z,4.95
2023-02-05T04:13:52.730Z,4.97
2023-02-05T04:16:23.596Z,4.98
2023-02-05T04:18:53.074Z,4.99
2023-02-05T04:21:22.266Z,4.94
2023-02-05T04:23:51.104Z,4.96
2023-02-05T04:26:19.448Z,4.98
2023-02-05T04:28:57.912Z,5.04
2023-02-05T04:31:29.936Z,5.06
2023-02-05T04:33:59.820Z,5.07
2023-02-05T04:36:28.257Z,5.09
2023-02-05T04:38:57.182Z,5.07
2023-02-05T04:41:25.392Z,5.03
2023-02-05T04:43:53.529Z,5.07
2023-02-05T04:46:21.504Z,5.06
2023-02-05T04:48:49.753Z,5.04
2023-02-05T04:51:19.227Z,5.01
2023-02-05T04:53:47.197Z,5.00
2023-02-05T04:56:18.871Z,5.01
2023-02-05T04:58:47.222Z,5.01
2023-02-05T05:01:16.251Z,5.03
2023-02-05T05:03:44.475Z,5.02
2023-02-05T05:06:13.419Z,5.04
2023-02-05T05:08:43.720Z,5.06
2023-02-05T05:11:14.197Z,5.07
2023-02-05T05:13:45.700Z,5.02
2023-02-05T05:16:14.364Z,5.00
2023-02-05T05:18:45.001Z,5.03
2023-02-05T05:21:13.432Z,5.03
2023-02-05T05:23:42.993Z,5.03
2023-02-05T05:26:13.181Z,5.03
2023-02-05T05:28:41.379Z,5.03
2023-02-05T05:31:10.877Z,5.03
2023-02-05T05:33:39.299Z,5.02
2023-02-05T05:36:08.356Z,5.00
2023-02-05T05:38:36.907Z,4.98
2023-02-05T05:41:25.060Z,5.01
2023-02-05T05:43:54.755Z,5.02
2023-02-05T05:46:26.236Z,5.04
2023-02-05T05:48:56.362Z,5.03
2023-02-05T05:51:26.608Z,5.04
2023-02-05T05:53:55.628Z,5.07
2023-02-05T05:56:27.290Z,5.07
2023-02-05T05:58:55.502Z,5.07
2023-02-05T06:01:23.472Z,5.10
2023-02-05T06:03:51.946Z,5.10
2023-02-05T06:06:20.499Z,5.09
2023-02-05T06:08:48.567Z,5.10
2023-02-05T06:11:16.725Z,5.11
2023-02-05T06:13:46.242Z,5.13
2023-02-05T06:16:14.285Z,5.14
2023-02-05T06:18:42.126Z,5.17
2023-02-05T06:21:10.776Z,5.14
2023-02-05T06:23:38.847Z,5.08
2023-02-05T06:26:06.647Z,5.07
2023-02-05T06:28:57.472Z,5.10
2023-02-05T06:31:25.628Z,5.13
2023-02-05T06:33:53.604Z,5.13
2023-02-05T06:36:21.669Z,5.16
2023-02-05T06:38:49.974Z,5.14
2023-02-05T06:41:18.402Z,5.11
2023-02-05T06:43:46.859Z,5.10
2023-02-05T06:46:16.430Z,5.13
2023-02-05T06:48:44.392Z,5.12
2023-02-05T06:51:13.465Z,5.08
2023-02-05T06:53:41.568Z,5.08
2023-02-05T06:56:09.589Z,5.07
2023-02-05T06:58:37.711Z,5.06
2023-02-05T07:01:06.071Z,5.06
2023-02-05T07:03:35.817Z,5.06
2023-02-05T07:06:04.985Z,5.07
2023-02-05T07:08:33.239Z,5.07
2023-02-05T07:11:02.063Z,5.04
2023-02-05T07:13:30.956Z,5.00
2023-02-05T07:15:59.140Z,4.96
2023-02-05T07:18:27.473Z,5.02
2023-02-05T07:20:56.950Z,5.04
2023-02-05T07:23:24.917Z,5.05
2023-02-05T07:25:53.269Z,5.08
2023-02-05T07:28:21.298Z,5.06
2023-02-05T07:30:50.072Z,5.05
2023-02-05T07:33:18.912Z,4.99
2023-02-05T07:35:47.107Z,5.00
2023-02-05T07:38:16.443Z,4.99
2023-02-05T07:40:45.003Z,4.96
2023-02-05T07:43:12.958Z,4.95
2023-02-05T07:45:43.056Z,4.87
2023-02-05T07:48:13.837Z,4.88
2023-02-05T07:50:44.434Z,4.84
2023-02-05T07:53:12.396Z,4.77
2023-02-05T07:55:41.758Z,4.67
2023-02-05T07:58:09.892Z,4.60
2023-02-05T08:00:39.305Z,4.60
2023-02-05T08:03:08.117Z,4.38
2023-02-05T08:05:37.728Z,4.33
2023-02-05T08:08:06.267Z,4.40
2023-02-05T08:10:34.840Z,4.50
2023-02-05T08:13:04.363Z,4.56
2023-02-05T08:15:32.619Z,4.60
2023-02-05T08:18:01.003Z,4.63
2023-02-05T08:20:31.943Z,4.61
2023-02-05T08:23:05.243Z,4.67
2023-02-05T08:25:35.630Z,4.77
2023-02-05T08:28:09.550Z,4.81
2023-02-05T08:30:38.055Z,4.83
2023-02-05T08:33:06.024Z,4.87
2023-02-05T08:35:35.628Z,4.91
2023-02-05T08:38:03.998Z,4.80
2023-02-05T08:40:32.053Z,4.80
2023-02-05T08:43:02.246Z,4.86
2023-02-05T08:45:32.442Z,4.89
2023-02-05T08:48:01.138Z,4.97
2023-02-05T08:50:30.038Z,4.92
2023-02-05T08:53:00.649Z,4.93
2023-02-05T08:55:29.514Z,4.95
2023-02-05T08:57:59.137Z,4.93
2023-02-05T09:00:28.420Z,4.90
2023-02-05T09:02:58.711Z,4.99
2023-02-05T09:05:26.869Z,5.07
2023-02-05T09:07:55.102Z,5.10
2023-02-05T09:10:23.219Z,5.13
2023-02-05T09:12:53.678Z,5.06
2023-02-05T09:15:22.188Z,5.07
2023-02-05T09:17:52.838Z,5.17
2023-02-05T09:20:23.932Z,5.03
2023-02-05T09:22:54.123Z,4.95
2023-02-05T09:25:22.532Z,5.02
2023-02-05T09:27:50.927Z,4.93
2023-02-05T09:30:19.865Z,4.95
2023-02-05T09:32:50.819Z,4.93
2023-02-05T09:35:23.171Z,4.90
2023-02-05T09:37:51.233Z,4.93
2023-02-05T09:40:23.940Z,4.86
2023-02-05T09:43:02.172Z,4.95
2023-02-05T09:45:42.366Z,5.00
2023-02-05T09:48:49.690Z,5.03
2023-02-05T09:51:23.198Z,4.93
2023-02-05T09:53:58.086Z,4.93
2023-02-05T09:56:28.124Z,4.95
2023-02-05T09:58:58.921Z,5.01
2023-02-05T10:01:37.519Z,5.01
2023-02-05T10:04:07.861Z,4.97
2023-02-05T10:07:01.582Z,5.05
2023-02-05T10:09:45.081Z,5.07
2023-02-05T10:12:26.206Z,4.94
2023-02-05T10:15:05.789Z,4.98
2023-02-05T10:17:49.114Z,5.02
2023-02-05T10:20:32.449Z,5.07
2023-02-05T10:23:14.638Z,5.10
2023-02-05T10:26:06.980Z,5.16
2023-02-05T10:29:00.205Z,5.20
2023-02-05T10:31:40.718Z,5.28
2023-02-05T10:34:19.355Z,5.31
2023-02-05T10:36:51.453Z,5.38
2023-02-05T10:39:27.217Z,5.46
2023-02-05T10:42:00.868Z,5.51
2023-02-05T10:44:32.562Z,5.53
2023-02-05T10:47:06.527Z,5.50
2023-02-05T10:49:46.997Z,5.56
2023-02-05T10:52:17.222Z,5.55
2023-02-05T10:54:47.126Z,5.57
2023-02-05T10:57:19.999Z,5.56
2023-02-05T10:59:54.739Z,5.58
2023-02-05T11:02:26.376Z,5.50
2023-02-05T11:05:00.681Z,5.57
2023-02-05T11:07:35.230Z,5.58
2023-02-05T11:10:17.097Z,5.53
2023-02-05T11:12:47.009Z,5.48
2023-02-05T11:15:24.846Z,5.48
2023-02-05T11:17:55.553Z,5.43
2023-02-05T11:20:28.958Z,5.48
2023-02-05T11:23:16.601Z,5.51
2023-02-05T11:25:52.972Z,5.57
2023-02-05T11:28:28.010Z,5.61
2023-02-05T11:30:57.253Z,5.58
2023-02-05T11:33:31.393Z,5.65
2023-02-05T11:36:03.414Z,5.70
2023-02-05T11:38:43.588Z,5.78
2023-02-05T11:41:16.048Z,5.80
2023-02-05T11:43:51.094Z,5.75
2023-02-05T11:46:22.046Z,5.62
2023-02-05T11:48:56.958Z,5.68
2023-02-05T11:51:41.141Z,5.53
2023-02-05T11:54:21.469Z,5.55
2023-02-05T11:57:32.595Z,5.64
2023-02-05T12:00:02.575Z,5.53
2023-02-05T12:02:40.096Z,5.58
2023-02-05T12:05:18.537Z,5.56
2023-02-05T12:07:55.569Z,5.59
2023-02-05T12:10:28.877Z,5.66
2023-02-05T12:13:13.330Z,5.66
2023-02-05T12:15:46.654Z,5.75
2023-02-05T12:18:26.724Z,5.76
2023-02-05T12:21:11.517Z,5.80
2023-02-05T12:24:07.089Z,5.87
2023-02-05T12:26:38.137Z,5.92
2023-02-05T12:29:32.874Z,5.97
2023-02-05T12:32:13.852Z,5.98
2023-02-05T12:34:54.869Z,6.00
2023-02-05T12:37:34.120Z,5.99
2023-02-05T12:40:18.614Z,6.11
2023-02-05T12:42:53.812Z,6.17
2023-02-05T12:45:37.880Z,6.24
2023-02-05T12:48:26.773Z,6.30
2023-02-05T12:51:08.660Z,6.38
2023-02-05T12:54:11.212Z,6.43
2023-02-05T12:56:53.946Z,6.42
2023-02-05T12:59:34.530Z,6.45
2023-02-05T13:02:12.601Z,6.45
2023-02-05T13:04:44.731Z,6.50
2023-02-05T13:07:23.781Z,6.55
2023-02-05T13:09:59.619Z,6.57
2023-02-05T13:12:33.712Z,6.58
2023-02-05T13:15:14.565Z,6.63
2023-02-05T13:17:55.458Z,6.57
2023-02-05T13:20:50.512Z,6.56
2023-02-05T13:23:37.338Z,6.59
2023-02-05T13:26:25.844Z,6.65
2023-02-05T13:28:56.416Z,6.67
2023-02-05T13:31:29.713Z,6.72
2023-02-05T13:34:05.174Z,6.83
2023-02-05T13:37:08.773Z,6.87
2023-02-05T13:40:03.418Z,6.91
2023-02-05T13:42:52.012Z,7.00
2023-02-05T13:46:09.403Z,7.03
2023-02-05T13:49:10.644Z,7.05
2023-02-05T13:51:45.185Z,7.02
2023-02-05T13:54:58.267Z,6.97
2023-02-05T13:57:59.768Z,6.94
2023-02-05T14:00:28.857Z,6.92
2023-02-05T14:02:58.761Z,6.94
2023-02-05T14:05:44.499Z,6.93
2023-02-05T14:08:23.130Z,6.93
2023-02-05T14:11:03.048Z,6.93
2023-02-05T14:13:34.743Z,6.91
2023-02-05T14:16:49.885Z,6.84
2023-02-05T14:19:26.991Z,6.78
2023-02-05T14:22:14.046Z,6.73
2023-02-05T14:24:50.417Z,6.69
2023-02-05T14:27:51.311Z,6.57
2023-02-05T14:30:51.144Z,6.56
2023-02-05T14:33:35.460Z,6.57
2023-02-05T14:36:36.135Z,6.56
2023-02-05T14:39:21.775Z,6.47
2023-02-05T14:41:56.040Z,6.43
2023-02-05T14:44:28.386Z,6.45
2023-02-05T14:47:00.959Z,6.42
2023-02-05T14:49:38.887Z,6.38
2023-02-05T14:52:17.656Z,6.35
2023-02-05T14:54:51.390Z,6.29
2023-02-05T14:57:26.074Z,6.27
2023-02-05T14:59:58.414Z,6.30
2023-02-05T15:03:13.924Z,6.32
2023-02-05T15:05:53.870Z,6.27
2023-02-05T15:08:29.263Z,6.28
2023-02-05T15:11:10.186Z,6.29
2023-02-05T15:13:38.641Z,6.29
2023-02-05T15:16:21.916Z,6.29
2023-02-05T15:18:53.897Z,6.26
2023-02-05T15:21:27.641Z,6.17
2023-02-05T15:24:02.816Z,6.11
2023-02-05T15:26:41.268Z,6.09
2023-02-05T15:29:18.603Z,6.05
2023-02-05T15:31:50.394Z,6.06
2023-02-05T15:34:34.010Z,6.05
2023-02-05T15:37:17.097Z,5.92
2023-02-05T15:39:52.806Z,5.83
2023-02-05T15:42:30.839Z,5.88
2023-02-05T15:44:59.344Z,5.87
2023-02-05T15:47:29.922Z,5.85
2023-02-05T15:50:01.545Z,5.84
2023-02-05T15:52:33.350Z,5.85
2023-02-05T15:55:11.252Z,5.81
2023-02-05T15:57:46.415Z,5.81
2023-02-05T16:00:22.471Z,5.77
2023-02-05T16:02:58.261Z,5.79
2023-02-05T16:05:30.626Z,5.79
2023-02-05T16:08:01.886Z,5.80
2023-02-05T16:10:32.654Z,5.78
2023-02-05T16:13:04.504Z,5.73
2023-02-05T16:15:39.704Z,5.69
2023-02-05T16:18:15.049Z,5.67
2023-02-05T16:20:49.785Z,5.61
2023-02-05T16:23:25.586Z,5.58
2023-02-05T16:25:58.682Z,5.59
2023-02-05T16:28:38.633Z,5.56
2023-02-05T16:31:16.596Z,5.52
2023-02-05T16:33:49.498Z,5.47
2023-02-05T16:36:22.465Z,5.45
2023-02-05T16:38:53.182Z,5.44
2023-02-05T16:41:25.485Z,5.41
2023-02-05T16:43:56.782Z,5.38
2023-02-05T16:46:30.230Z,5.36
2023-02-05T16:49:01.297Z,5.35
2023-02-05T16:51:55.637Z,5.37
2023-02-05T16:54:34.991Z,5.33
2023-02-05T16:57:12.868Z,5.26
2023-02-05T16:59:53.059Z,5.27
2023-02-05T17:02:29.753Z,5.27
2023-02-05T17:05:02.194Z,5.25
2023-02-05T17:07:31.986Z,5.20
2023-02-05T17:10:15.875Z,5.25
2023-02-05T17:12:49.694Z,5.28
2023-02-05T17:15:43.983Z,5.27
2023-02-05T17:18:32.899Z,5.24
2023-02-05T17:21:24.530Z,5.24
2023-02-05T17:23:54.085Z,5.25
2023-02-05T17:26:22.345Z,5.21
2023-02-05T17:28:54.524Z,5.24
2023-02-05T17:31:26.350Z,5.25
2023-02-05T17:33:55.599Z,5.23
2023-02-05T17:36:24.301Z,5.26
2023-02-05T17:38:52.898Z,5.29
2023-02-05T17:41:42.443Z,5.31
2023-02-05T17:44:13.286Z,5.30
2023-02-05T17:46:43.335Z,5.30
2023-02-05T17:49:12.587Z,5.30
2023-02-05T17:51:42.658Z,5.28
2023-02-05T17:54:15.982Z,5.30
2023-02-05T17:56:50.070Z,5.34
2023-02-05T17:59:20.351Z,5.35
2023-02-05T18:01:51.176Z,5.37
2023-02-05T18:04:20.389Z,5.36
2023-02-05T18:06:50.420Z,5.38
2023-02-05T18:09:20.078Z,5.36
2023-02-05T18:11:48.351Z,5.32
2023-02-05T18:14:18.516Z,5.31
2023-02-05T18:16:47.732Z,5.33
2023-02-05T18:19:17.177Z,5.36
2023-02-05T18:21:47.128Z,5.33
2023-02-05T18:24:15.738Z,5.29
2023-02-05T18:26:43.991Z,5.31
2023-02-05T18:29:14.254Z,5.31
2023-02-05T18:31:42.243Z,5.32
2023-02-05T18:34:10.273Z,5.34
2023-02-05T18:36:42.687Z,5.33
2023-02-05T18:39:13.132Z,5.29
2023-02-05T18:41:41.714Z,5.27
2023-02-05T18:44:09.813Z,5.27
2023-02-05T18:46:40.158Z,5.29
2023-02-05T18:49:08.415Z,5.28
2023-02-05T18:51:37.346Z,5.30
2023-02-05T18:54:07.418Z,5.28
2023-02-05T18:56:36.392Z,5.28
2023-02-05T18:59:06.714Z,5.27
2023-02-05T19:01:38.152Z,5.27
2023-02-05T19:04:09.393Z,5.26
2023-02-05T19:06:41.882Z,5.24
2023-02-05T19:09:14.396Z,5.25
2023-02-05T19:11:46.316Z,5.25
2023-02-05T19:14:15.696Z,5.23
2023-02-05T19:16:45.173Z,5.26
2023-02-05T19:19:16.690Z,5.25
2023-02-05T19:21:45.872Z,5.25
2023-02-05T19:24:17.443Z,5.27
2023-02-05T19:26:49.475Z,5.27
2023-02-05T19:29:19.611Z,5.28
2023-02-05T19:31:50.105Z,5.28
2023-02-05T19:34:18.795Z,5.29
2023-02-05T19:36:47.040Z,5.29
2023-02-05T19:39:16.989Z,5.29
2023-02-05T19:41:48.334Z,5.25
2023-02-05T19:44:17.811Z,5.27
2023-02-05T19:46:50.409Z,5.28
2023-02-05T19:49:20.590Z,5.23
2023-02-05T19:51:54.196Z,5.24
2023-02-05T19:54:24.605Z,5.21
2023-02-05T19:56:55.868Z,5.18
2023-02-05T19:59:24.958Z,5.22
2023-02-05T20:01:53.193Z,5.21
2023-02-05T20:04:24.633Z,5.23
2023-02-05T20:06:56.626Z,5.20
2023-02-05T20:09:26.898Z,5.21
2023-02-05T20:11:55.729Z,5.17
2023-02-05T20:14:26.370Z,5.18
2023-02-05T20:16:55.592Z,5.18
2023-02-05T20:19:25.973Z,5.21
2023-02-05T20:21:56.535Z,5.22
2023-02-05T20:24:26.051Z,5.22
2023-02-05T20:26:57.362Z,5.23
2023-02-05T20:29:43.387Z,5.21
2023-02-05T20:32:11.893Z,5.14
2023-02-05T20:34:44.822Z,5.09
2023-02-05T20:37:13.280Z,5.13
2023-02-05T20:39:44.654Z,5.12
2023-02-05T20:42:16.087Z,5.10
2023-02-05T20:44:45.310Z,5.11
2023-02-05T20:47:15.394Z,5.16
2023-02-05T20:49:45.893Z,5.17
2023-02-05T20:52:14.202Z,5.17
2023-02-05T20:54:46.715Z,5.19
2023-02-05T20:57:20.435Z,5.19
2023-02-05T20:59:48.893Z,5.16
2023-02-05T21:02:19.384Z,5.14
2023-02-05T21:04:48.488Z,5.13
2023-02-05T21:07:16.845Z,5.15
2023-02-05T21:09:46.334Z,5.16
2023-02-05T21:12:14.394Z,5.20
2023-02-05T21:14:42.745Z,5.17
2023-02-05T21:17:11.374Z,5.17
2023-02-05T21:19:40.594Z,5.12
2023-02-05T21:22:11.785Z,5.10
2023-02-05T21:24:40.198Z,5.07
2023-02-05T21:27:10.064Z,5.06
2023-02-05T21:29:39.310Z,5.05
2023-02-05T21:32:08.581Z,5.00
2023-02-05T21:34:36.786Z,5.00
2023-02-05T21:37:05.922Z,5.03
2023-02-05T21:39:36.453Z,5.03
2023-02-05T21:42:04.843Z,5.00
2023-02-05T21:44:34.807Z,5.04
2023-02-05T21:47:03.021Z,5.03
2023-02-05T21:49:32.759Z,5.02
2023-02-05T21:52:02.012Z,5.07
2023-02-05T21:54:30.874Z,5.07
2023-02-05T21:56:59.054Z,5.07
2023-02-05T21:59:26.987Z,5.06
2023-02-05T22:02:01.124Z,5.05
2023-02-05T22:04:29.718Z,5.09
2023-02-05T22:06:58.104Z,5.08
2023-02-05T22:09:26.477Z,5.06
2023-02-05T22:11:54.619Z,5.08
2023-02-05T22:14:23.065Z,5.09
2023-02-05T22:16:51.490Z,5.12
2023-02-05T22:19:21.285Z,5.10
2023-02-05T22:21:49.485Z,5.06
2023-02-05T22:24:19.041Z,5.03
2023-02-05T22:26:48.461Z,5.01
2023-02-05T22:29:19.279Z,4.93
2023-02-05T22:31:51.432Z,4.91
2023-02-05T22:34:21.299Z,4.92
2023-02-05T22:36:49.227Z,4.87
2023-02-05T22:39:17.547Z,4.89
2023-02-05T22:41:45.793Z,4.91
2023-02-05T22:44:14.194Z,4.92
2023-02-05T22:46:45.024Z,4.93
2023-02-05T22:49:15.107Z,4.92
2023-02-05T22:51:45.726Z,4.91
2023-02-05T22:54:15.269Z,4.88
2023-02-05T22:56:46.218Z,4.89
2023-02-05T22:59:14.390Z,4.91
2023-02-05T23:02:01.674Z,4.92
2023-02-05T23:04:29.667Z,4.92
2023-02-05T23:06:59.200Z,4.88
2023-02-05T23:09:27.396Z,4.89
2023-02-05T23:11:57.384Z,4.87
2023-02-05T23:14:25.336Z,4.88
2023-02-05T23:16:54.339Z,4.89
2023-02-05T23:19:23.103Z,4.89
2023-02-05T23:21:53.495Z,4.93
2023-02-05T23:24:25.154Z,4.93
2023-02-05T23:26:54.620Z,4.93
2023-02-05T23:29:22.650Z,4.91
2023-02-05T23:31:50.832Z,4.90
2023-02-05T23:34:18.865Z,4.88
2023-02-05T23:36:47.002Z,4.86
2023-02-05T23:39:15.631Z,4.88
2023-02-05T23:41:44.948Z,4.91
2023-02-05T23:44:15.197Z,4.83
2023-02-05T23:46:44.350Z,4.80
2023-02-05T23:49:13.135Z,4.81
2023-02-05T23:51:42.402Z,4.85
2023-02-05T23:54:12.283Z,4.85
2023-02-05T23:56:43.283Z,4.83
2023-02-05T23:59:14.040Z,4.82
